LXGBLPFR

Guest
Details From LXGB - Gibraltar
To LPFR - Faro
Flight Number -
Tags generated
Created
Modified
Stats Distance 137 nm / 254 km
Max Altitude 9,500 ft / 2,896 m
Waypoints 4
Social Downloads 2
Likes 0
Share VATSIM

Download

Looking for another format? Having issues loading an existing format? Contact us
Advertisement - Login to hide

Notes

Basic altitude profile: - Ascent Rate: 2500ft/min - Ascent Speed: 250kts - Cruise Altitude: 35000ft - Cruise Speed: 420kts - Descent Rate: 1500ft/min - Descent Speed: 250kts Options: - Use NATs: yes - Use PACOTS: yes - Use low airways: yes - Use high airways: yes

Route

LXGB PIREN W1 VFA LPFR

ID Type Via Altitude (ft/m) Position (lat/lon) Dist (leg/tot) Name
O LXGB APT - 0 / 0 36.15121 / -5.34966 - / 0 nm Gibraltar
PIREN FIX - 6,500 / 1,981 36.83333 / -7.38333 106 / 106 nm
VFA VOR W1 (AWY-LO) 9,500 / 2,896 37.01352 / -7.97501 30 / 136 nm FARO VOR-DME
O LPFR APT - 0 / 0 37.01534 / -7.97233 0 / 136 nm Faro

Altitude Profile

Advertisement - Login to hide

LXGB

Details ICAO LXGB (GIB)
Name Gibraltar Int'l
Region Gibralter
Timezone Europe/Gibraltar (UTC+2.0)
Stats Elevation 15 ft / 5 m (AMSL)
Location 36.151200° -5.349740°
Runways 1
Magnetic Variation 1.025° W

METAR

LXGB 231550Z 08010KT 9000 HZ FEW013 BKN140 21/19 Q1023 BLU NOSIG

Decode

TAF

Not found

Departure Runways

ID Width Length Bearing (true/mag) Surface Threshold Overrun Markings Lighting
09 148 ft / 45 m 5,836 ft / 1,779 m 87.54° / 88.57° ASPHALT 456 ft / 139 m 56 ft / 17 m UK-PREC-APP EDGE THRESHOLD REIL-UNI
27 148 ft / 45 m 5,836 ft / 1,779 m 267.56° / 268.58° ASPHALT 328 ft / 100 m 141 ft / 43 m UK-PREC-APP EDGE THRESHOLD REIL-UNI

LPFR

Details ICAO LPFR (FAO)
Name Faro
Region Portugal
Timezone Europe/Lisbon (UTC+1.0)
Stats Elevation 22 ft / 7 m (AMSL)
Location 37.015300° -7.972320°
Runways 1
Magnetic Variation 1.833° W

METAR

LPFR 231600Z 08008KT 9999 FEW025 22/18 Q1022

Decode

TAF

TAF LPFR 231100Z 2312/2412 10012KT 9999 FEW015 SCT030 TEMPO 2312/2320 8000 SHRA BKN015 FEW025CB BECMG 2318/2320 03008KT BECMG 2408/2410 10010KT

Decode

Destination Runways

ID Width Length Bearing (true/mag) Surface Threshold Overrun Markings Lighting
10 148 ft / 45 m 8,179 ft / 2,493 m 100.08° / 101.91° ASPHALT 148 ft / 45 m 0 ft / 0 m PREC-APP EDGE THRESHOLD REIL-OMNI
28 148 ft / 45 m 8,179 ft / 2,493 m 280.09° / 281.93° ASPHALT 144 ft / 44 m 0 ft / 0 m PREC-APP EDGE THRESHOLD REIL-OMNI

Approach Navaids

Runway Type Ident Frequency Range Bearing (true/mag) Slope Elevation
28 GS IIF 109.50 MHz 10 nm / 19 km 280.17° / 282.01 ° 3.00° 24 ft / 7 m (AMSL)
28 DME IIF 109.50 MHz 18 nm / 33 km - - 24 ft / 7 m (AMSL)
28 LOC-ILS IIF 109.50 MHz 18 nm / 33 km 280.08° / 281.91 ° - 22 ft / 7 m (AMSL)

Popular Alternatives